sensor_id;sensor_type;location;lat;lon;timestamp;temperature;humidity
16180;DHT22;8196;49.428;10.906;2023-04-19T00:02:09;8.10;99.90
16180;DHT22;8196;49.428;10.906;2023-04-19T00:04:36;5.40;99.90
16180;DHT22;8196;49.428;10.906;2023-04-19T00:07:03;8.00;99.90
16180;DHT22;8196;49.428;10.906;2023-04-19T00:09:30;8.00;99.90
16180;DHT22;8196;49.428;10.906;2023-04-19T00:11:57;8.00;99.90
16180;DHT22;8196;49.428;10.906;2023-04-19T00:14:26;7.80;99.90
16180;DHT22;8196;49.428;10.906;2023-04-19T00:16:53;8.00;99.90
16180;DHT22;8196;49.428;10.906;2023-04-19T00:19:19;8.10;99.90
16180;DHT22;8196;49.428;10.906;2023-04-19T00:21:48;8.10;99.90
16180;DHT22;8196;49.428;10.906;2023-04-19T00:24:14;8.10;99.90
16180;DHT22;8196;49.428;10.906;2023-04-19T00:26:41;8.10;99.90
16180;DHT22;8196;49.428;10.906;2023-04-19T00:29:08;8.10;99.90
16180;DHT22;8196;49.428;10.906;2023-04-19T00:31:35;8.10;99.90
16180;DHT22;8196;49.428;10.906;2023-04-19T00:34:06;8.10;99.90
16180;DHT22;8196;49.428;10.906;2023-04-19T00:36:33;8.10;99.90
16180;DHT22;8196;49.428;10.906;2023-04-19T00:38:59;8.10;99.90
16180;DHT22;8196;49.428;10.906;2023-04-19T00:41:26;8.00;99.90
16180;DHT22;8196;49.428;10.906;2023-04-19T00:43:53;8.00;99.90
16180;DHT22;8196;49.428;10.906;2023-04-19T00:46:20;8.00;99.90
16180;DHT22;8196;49.428;10.906;2023-04-19T00:48:48;7.90;99.90
16180;DHT22;8196;49.428;10.906;2023-04-19T00:51:15;7.90;99.90
16180;DHT22;8196;49.428;10.906;2023-04-19T00:53:42;7.80;99.90
16180;DHT22;8196;49.428;10.906;2023-04-19T00:56:09;7.50;99.90
16180;DHT22;8196;49.428;10.906;2023-04-19T00:58:37;7.50;99.90
16180;DHT22;8196;49.428;10.906;2023-04-19T01:01:04;7.30;99.90
16180;DHT22;8196;49.428;10.906;2023-04-19T01:03:32;7.20;99.90
16180;DHT22;8196;49.428;10.906;2023-04-19T01:06:00;7.20;99.90
16180;DHT22;8196;49.428;10.906;2023-04-19T01:08:28;7.20;99.90
16180;DHT22;8196;49.428;10.906;2023-04-19T01:10:54;7.30;99.90
16180;DHT22;8196;49.428;10.906;2023-04-19T01:13:21;7.40;99.90
16180;DHT22;8196;49.428;10.906;2023-04-19T01:15:51;7.50;99.90
16180;DHT22;8196;49.428;10.906;2023-04-19T01:18:18;7.60;99.90
16180;DHT22;8196;49.428;10.906;2023-04-19T01:20:45;7.70;99.90
16180;DHT22;8196;49.428;10.906;2023-04-19T01:23:11;7.70;99.90
16180;DHT22;8196;49.428;10.906;2023-04-19T01:25:38;7.80;99.90
16180;DHT22;8196;49.428;10.906;2023-04-19T01:28:05;7.80;99.90
16180;DHT22;8196;49.428;10.906;2023-04-19T01:30:33;7.90;99.90
16180;DHT22;8196;49.428;10.906;2023-04-19T01:32:59;7.90;99.90
16180;DHT22;8196;49.428;10.906;2023-04-19T01:35:26;7.90;99.90
16180;DHT22;8196;49.428;10.906;2023-04-19T01:37:53;8.00;99.90
16180;DHT22;8196;49.428;10.906;2023-04-19T01:40:23;8.00;99.90
16180;DHT22;8196;49.428;10.906;2023-04-19T01:42:51;8.00;99.90
16180;DHT22;8196;49.428;10.906;2023-04-19T01:45:18;8.00;99.90
16180;DHT22;8196;49.428;10.906;2023-04-19T01:47:45;8.00;99.90
16180;DHT22;8196;49.428;10.906;2023-04-19T01:50:12;7.90;99.90
16180;DHT22;8196;49.428;10.906;2023-04-19T01:52:38;8.00;99.90
16180;DHT22;8196;49.428;10.906;2023-04-19T01:55:06;8.00;99.90
16180;DHT22;8196;49.428;10.906;2023-04-19T01:57:33;8.00;99.90
16180;DHT22;8196;49.428;10.906;2023-04-19T02:00:00;7.50;99.90
16180;DHT22;8196;49.428;10.906;2023-04-19T02:02:27;8.00;99.90
16180;DHT22;8196;49.428;10.906;2023-04-19T02:04:54;8.00;99.90
16180;DHT22;8196;49.428;10.906;2023-04-19T02:07:21;8.00;99.90
16180;DHT22;8196;49.428;10.906;2023-04-19T02:09:48;8.00;99.90
16180;DHT22;8196;49.428;10.906;2023-04-19T02:12:15;8.00;99.90
16180;DHT22;8196;49.428;10.906;2023-04-19T02:14:41;8.00;99.90
16180;DHT22;8196;49.428;10.906;2023-04-19T02:17:08;7.90;99.90
16180;DHT22;8196;49.428;10.906;2023-04-19T02:19:35;7.90;99.90
16180;DHT22;8196;49.428;10.906;2023-04-19T02:22:01;7.90;99.90
16180;DHT22;8196;49.428;10.906;2023-04-19T02:24:28;7.90;99.90
16180;DHT22;8196;49.428;10.906;2023-04-19T02:26:55;7.80;99.90
16180;DHT22;8196;49.428;10.906;2023-04-19T02:29:21;7.80;99.90
16180;DHT22;8196;49.428;10.906;2023-04-19T02:31:48;7.80;99.90
16180;DHT22;8196;49.428;10.906;2023-04-19T02:34:15;7.70;99.90
16180;DHT22;8196;49.428;10.906;2023-04-19T02:36:43;7.20;99.90
16180;DHT22;8196;49.428;10.906;2023-04-19T02:39:10;7.50;99.90
16180;DHT22;8196;49.428;10.906;2023-04-19T02:41:36;7.40;99.90
16180;DHT22;8196;49.428;10.906;2023-04-19T02:44:03;7.20;99.90
16180;DHT22;8196;49.428;10.906;2023-04-19T02:46:30;7.10;99.90
16180;DHT22;8196;49.428;10.906;2023-04-19T02:48:59;7.00;99.90
16180;DHT22;8196;49.428;10.906;2023-04-19T02:51:26;6.80;99.90
16180;DHT22;8196;49.428;10.906;2023-04-19T02:53:53;6.70;99.90
16180;DHT22;8196;49.428;10.906;2023-04-19T02:56:19;6.70;99.90
16180;DHT22;8196;49.428;10.906;2023-04-19T02:58:46;6.70;99.90
16180;DHT22;8196;49.428;10.906;2023-04-19T03:01:13;6.70;99.90
16180;DHT22;8196;49.428;10.906;2023-04-19T03:03:40;6.70;99.90
16180;DHT22;8196;49.428;10.906;2023-04-19T03:06:07;6.80;99.90
16180;DHT22;8196;49.428;10.906;2023-04-19T03:08:34;6.90;99.90
16180;DHT22;8196;49.428;10.906;2023-04-19T03:11:01;6.90;99.90
16180;DHT22;8196;49.428;10.906;2023-04-19T03:13:28;7.00;99.90
16180;DHT22;8196;49.428;10.906;2023-04-19T03:15:55;7.10;99.90
16180;DHT22;8196;49.428;10.906;2023-04-19T03:18:21;7.20;99.90
16180;DHT22;8196;49.428;10.906;2023-04-19T03:20:48;7.30;99.90
16180;DHT22;8196;49.428;10.906;2023-04-19T03:23:15;7.30;99.90
16180;DHT22;8196;49.428;10.906;2023-04-19T03:25:42;7.30;99.90
16180;DHT22;8196;49.428;10.906;2023-04-19T03:28:08;7.40;99.90
16180;DHT22;8196;49.428;10.906;2023-04-19T03:30:35;7.30;99.90
16180;DHT22;8196;49.428;10.906;2023-04-19T03:33:02;7.30;99.90
16180;DHT22;8196;49.428;10.906;2023-04-19T03:35:28;7.30;99.90
16180;DHT22;8196;49.428;10.906;2023-04-19T03:37:57;7.20;99.90
16180;DHT22;8196;49.428;10.906;2023-04-19T03:40:24;7.20;99.90
16180;DHT22;8196;49.428;10.906;2023-04-19T03:42:51;7.10;99.90
16180;DHT22;8196;49.428;10.906;2023-04-19T03:45:18;7.10;99.90
16180;DHT22;8196;49.428;10.906;2023-04-19T03:47:45;7.00;99.90
16180;DHT22;8196;49.428;10.906;2023-04-19T03:50:11;7.00;99.90
16180;DHT22;8196;49.428;10.906;2023-04-19T03:52:38;7.00;99.90
16180;DHT22;8196;49.428;10.906;2023-04-19T03:55:05;7.10;99.90
16180;DHT22;8196;49.428;10.906;2023-04-19T03:57:32;7.00;99.90
16180;DHT22;8196;49.428;10.906;2023-04-19T03:59:59;7.00;99.90
16180;DHT22;8196;49.428;10.906;2023-04-19T04:02:26;7.10;99.90
16180;DHT22;8196;49.428;10.906;2023-04-19T04:04:54;7.00;99.90
16180;DHT22;8196;49.428;10.906;2023-04-19T04:07:21;6.90;99.90
16180;DHT22;8196;49.428;10.906;2023-04-19T04:09:49;6.90;99.90
16180;DHT22;8196;49.428;10.906;2023-04-19T04:12:16;6.70;99.90
16180;DHT22;8196;49.428;10.906;2023-04-19T04:14:42;6.70;99.90
16180;DHT22;8196;49.428;10.906;2023-04-19T04:17:11;6.70;99.90
16180;DHT22;8196;49.428;10.906;2023-04-19T04:19:37;6.60;99.90
16180;DHT22;8196;49.428;10.906;2023-04-19T04:22:05;6.70;99.90
16180;DHT22;8196;49.428;10.906;2023-04-19T04:24:40;6.80;99.90
16180;DHT22;8196;49.428;10.906;2023-04-19T04:27:08;6.80;99.90
16180;DHT22;8196;49.428;10.906;2023-04-19T04:29:36;6.90;99.90
16180;DHT22;8196;49.428;10.906;2023-04-19T04:32:05;7.00;99.90
16180;DHT22;8196;49.428;10.906;2023-04-19T04:34:34;7.10;99.90
16180;DHT22;8196;49.428;10.906;2023-04-19T04:37:02;7.10;99.90
16180;DHT22;8196;49.428;10.906;2023-04-19T04:39:29;7.20;99.90
16180;DHT22;8196;49.428;10.906;2023-04-19T04:41:56;7.20;99.90
16180;DHT22;8196;49.428;10.906;2023-04-19T04:44:23;7.30;99.90
16180;DHT22;8196;49.428;10.906;2023-04-19T04:46:50;7.40;99.90
16180;DHT22;8196;49.428;10.906;2023-04-19T04:49:17;7.40;99.90
16180;DHT22;8196;49.428;10.906;2023-04-19T04:51:43;7.50;99.90
16180;DHT22;8196;49.428;10.906;2023-04-19T04:54:10;7.60;99.90
16180;DHT22;8196;49.428;10.906;2023-04-19T04:56:37;7.60;99.90
16180;DHT22;8196;49.428;10.906;2023-04-19T04:59:04;7.50;99.90
16180;DHT22;8196;49.428;10.906;2023-04-19T05:01:31;7.50;99.90
16180;DHT22;8196;49.428;10.906;2023-04-19T05:03:57;7.60;99.90
16180;DHT22;8196;49.428;10.906;2023-04-19T05:06:24;7.60;99.90
16180;DHT22;8196;49.428;10.906;2023-04-19T05:08:52;7.70;99.90
16180;DHT22;8196;49.428;10.906;2023-04-19T05:11:19;7.70;99.90
16180;DHT22;8196;49.428;10.906;2023-04-19T05:13:46;7.80;99.90
16180;DHT22;8196;49.428;10.906;2023-04-19T05:16:13;7.90;99.90
16180;DHT22;8196;49.428;10.906;2023-04-19T05:18:39;7.90;99.90
16180;DHT22;8196;49.428;10.906;2023-04-19T05:21:06;8.00;99.90
16180;DHT22;8196;49.428;10.906;2023-04-19T05:23:37;8.10;99.90
16180;DHT22;8196;49.428;10.906;2023-04-19T05:26:03;8.20;99.90
16180;DHT22;8196;49.428;10.906;2023-04-19T05:28:30;8.40;99.90
16180;DHT22;8196;49.428;10.906;2023-04-19T05:30:57;8.40;99.90
16180;DHT22;8196;49.428;10.906;2023-04-19T05:33:24;8.50;99.90
16180;DHT22;8196;49.428;10.906;2023-04-19T05:35:50;8.60;99.90
16180;DHT22;8196;49.428;10.906;2023-04-19T05:38:17;8.60;99.90
16180;DHT22;8196;49.428;10.906;2023-04-19T05:40:44;8.70;99.90
16180;DHT22;8196;49.428;10.906;2023-04-19T05:43:11;8.80;99.90
16180;DHT22;8196;49.428;10.906;2023-04-19T05:45:40;8.80;99.90
16180;DHT22;8196;49.428;10.906;2023-04-19T05:48:06;8.90;99.90
16180;DHT22;8196;49.428;10.906;2023-04-19T05:50:34;9.10;99.90
16180;DHT22;8196;49.428;10.906;2023-04-19T05:53:02;9.10;99.90
16180;DHT22;8196;49.428;10.906;2023-04-19T05:55:29;9.10;99.90
16180;DHT22;8196;49.428;10.906;2023-04-19T05:57:57;9.20;99.90
16180;DHT22;8196;49.428;10.906;2023-04-19T06:00:24;9.20;99.90
16180;DHT22;8196;49.428;10.906;2023-04-19T06:02:51;9.20;99.90
16180;DHT22;8196;49.428;10.906;2023-04-19T06:05:18;9.20;99.90
16180;DHT22;8196;49.428;10.906;2023-04-19T06:07:45;9.30;99.90
16180;DHT22;8196;49.428;10.906;2023-04-19T06:10:21;9.30;99.90
16180;DHT22;8196;49.428;10.906;2023-04-19T06:12:48;9.40;99.90
16180;DHT22;8196;49.428;10.906;2023-04-19T06:15:15;9.40;99.90
16180;DHT22;8196;49.428;10.906;2023-04-19T06:17:42;9.50;99.90
16180;DHT22;8196;49.428;10.906;2023-04-19T06:20:09;9.50;99.90
16180;DHT22;8196;49.428;10.906;2023-04-19T06:22:44;9.50;99.90
16180;DHT22;8196;49.428;10.906;2023-04-19T06:25:11;9.60;99.90
16180;DHT22;8196;49.428;10.906;2023-04-19T06:27:38;9.80;99.90
16180;DHT22;8196;49.428;10.906;2023-04-19T06:30:05;9.90;99.90
16180;DHT22;8196;49.428;10.906;2023-04-19T06:32:32;9.90;99.90
16180;DHT22;8196;49.428;10.906;2023-04-19T06:34:58;10.10;99.90
16180;DHT22;8196;49.428;10.906;2023-04-19T06:37:25;10.20;99.90
16180;DHT22;8196;49.428;10.906;2023-04-19T06:39:52;10.20;99.90
16180;DHT22;8196;49.428;10.906;2023-04-19T06:42:19;10.20;99.90
16180;DHT22;8196;49.428;10.906;2023-04-19T06:44:46;10.20;99.90
16180;DHT22;8196;49.428;10.906;2023-04-19T06:47:13;10.20;99.90
16180;DHT22;8196;49.428;10.906;2023-04-19T06:49:39;10.20;99.90
16180;DHT22;8196;49.428;10.906;2023-04-19T06:52:06;10.20;99.90
16180;DHT22;8196;49.428;10.906;2023-04-19T06:54:33;10.30;99.90
16180;DHT22;8196;49.428;10.906;2023-04-19T06:57:00;10.30;99.90
16180;DHT22;8196;49.428;10.906;2023-04-19T06:59:27;10.30;99.90
16180;DHT22;8196;49.428;10.906;2023-04-19T07:01:57;10.30;99.90
16180;DHT22;8196;49.428;10.906;2023-04-19T07:04:25;10.40;99.90
16180;DHT22;8196;49.428;10.906;2023-04-19T07:06:52;10.50;99.90
16180;DHT22;8196;49.428;10.906;2023-04-19T07:09:19;10.60;99.90
16180;DHT22;8196;49.428;10.906;2023-04-19T07:11:46;10.60;99.90
16180;DHT22;8196;49.428;10.906;2023-04-19T07:14:13;10.60;99.90
16180;DHT22;8196;49.428;10.906;2023-04-19T07:16:40;10.60;99.90
16180;DHT22;8196;49.428;10.906;2023-04-19T07:19:09;10.60;99.90
16180;DHT22;8196;49.428;10.906;2023-04-19T07:21:36;10.50;99.90
16180;DHT22;8196;49.428;10.906;2023-04-19T07:24:05;10.50;99.90
16180;DHT22;8196;49.428;10.906;2023-04-19T07:26:32;10.50;99.90
16180;DHT22;8196;49.428;10.906;2023-04-19T07:29:00;10.50;99.90
16180;DHT22;8196;49.428;10.906;2023-04-19T07:31:27;10.50;99.90
16180;DHT22;8196;49.428;10.906;2023-04-19T07:33:53;10.60;99.90
16180;DHT22;8196;49.428;10.906;2023-04-19T07:36:20;10.60;99.90
16180;DHT22;8196;49.428;10.906;2023-04-19T07:38:47;10.60;99.90
16180;DHT22;8196;49.428;10.906;2023-04-19T07:41:14;10.60;99.90
16180;DHT22;8196;49.428;10.906;2023-04-19T07:43:40;10.60;99.90
16180;DHT22;8196;49.428;10.906;2023-04-19T07:46:10;10.60;99.90
16180;DHT22;8196;49.428;10.906;2023-04-19T07:48:37;10.60;99.90
16180;DHT22;8196;49.428;10.906;2023-04-19T07:51:08;10.70;99.90
16180;DHT22;8196;49.428;10.906;2023-04-19T07:53:36;10.60;99.90
16180;DHT22;8196;49.428;10.906;2023-04-19T07:56:03;10.60;99.90
16180;DHT22;8196;49.428;10.906;2023-04-19T07:58:30;10.50;99.90
16180;DHT22;8196;49.428;10.906;2023-04-19T08:00:57;10.50;99.90
16180;DHT22;8196;49.428;10.906;2023-04-19T08:03:24;10.50;99.90
16180;DHT22;8196;49.428;10.906;2023-04-19T08:05:51;10.50;99.90
16180;DHT22;8196;49.428;10.906;2023-04-19T08:08:18;10.50;99.90
16180;DHT22;8196;49.428;10.906;2023-04-19T08:10:44;10.50;99.90
16180;DHT22;8196;49.428;10.906;2023-04-19T08:13:11;10.50;99.90
16180;DHT22;8196;49.428;10.906;2023-04-19T08:15:40;10.40;99.90
16180;DHT22;8196;49.428;10.906;2023-04-19T08:18:10;10.40;99.90
16180;DHT22;8196;49.428;10.906;2023-04-19T08:20:37;10.40;99.90
16180;DHT22;8196;49.428;10.906;2023-04-19T08:23:04;10.30;99.90
16180;DHT22;8196;49.428;10.906;2023-04-19T08:25:48;10.30;99.90
16180;DHT22;8196;49.428;10.906;2023-04-19T08:28:15;10.10;99.90
16180;DHT22;8196;49.428;10.906;2023-04-19T08:30:42;10.10;99.90
16180;DHT22;8196;49.428;10.906;2023-04-19T08:33:09;7.90;99.90
16180;DHT22;8196;49.428;10.906;2023-04-19T08:35:37;10.00;99.90
16180;DHT22;8196;49.428;10.906;2023-04-19T08:38:04;9.90;99.90
16180;DHT22;8196;49.428;10.906;2023-04-19T08:40:32;9.90;99.90
16180;DHT22;8196;49.428;10.906;2023-04-19T08:42:59;9.90;99.90
16180;DHT22;8196;49.428;10.906;2023-04-19T08:45:30;9.90;99.90
16180;DHT22;8196;49.428;10.906;2023-04-19T08:47:57;9.90;99.90
16180;DHT22;8196;49.428;10.906;2023-04-19T08:50:28;9.90;99.90
16180;DHT22;8196;49.428;10.906;2023-04-19T08:52:58;9.90;99.90
16180;DHT22;8196;49.428;10.906;2023-04-19T08:55:46;9.90;99.90
16180;DHT22;8196;49.428;10.906;2023-04-19T08:58:34;9.90;99.90
16180;DHT22;8196;49.428;10.906;2023-04-19T09:01:04;9.90;99.90
16180;DHT22;8196;49.428;10.906;2023-04-19T09:03:31;10.00;99.90
16180;DHT22;8196;49.428;10.906;2023-04-19T09:06:09;9.90;99.90
16180;DHT22;8196;49.428;10.906;2023-04-19T09:08:38;9.90;99.90
16180;DHT22;8196;49.428;10.906;2023-04-19T09:11:06;9.80;99.90
16180;DHT22;8196;49.428;10.906;2023-04-19T09:13:33;9.70;99.90
16180;DHT22;8196;49.428;10.906;2023-04-19T09:16:03;9.50;99.90
16180;DHT22;8196;49.428;10.906;2023-04-19T09:18:30;9.50;99.90
16180;DHT22;8196;49.428;10.906;2023-04-19T09:21:01;9.40;99.90
16180;DHT22;8196;49.428;10.906;2023-04-19T09:23:28;9.30;99.90
16180;DHT22;8196;49.428;10.906;2023-04-19T09:25:55;9.30;99.90
16180;DHT22;8196;49.428;10.906;2023-04-19T09:28:27;9.30;99.90
16180;DHT22;8196;49.428;10.906;2023-04-19T09:30:54;9.40;99.90
16180;DHT22;8196;49.428;10.906;2023-04-19T09:33:40;9.40;99.90
16180;DHT22;8196;49.428;10.906;2023-04-19T09:36:09;9.50;99.90
16180;DHT22;8196;49.428;10.906;2023-04-19T09:38:47;9.60;99.90
16180;DHT22;8196;49.428;10.906;2023-04-19T09:41:15;9.80;99.90
16180;DHT22;8196;49.428;10.906;2023-04-19T09:43:43;9.60;99.90
16180;DHT22;8196;49.428;10.906;2023-04-19T09:52:02;9.60;99.90
16180;DHT22;8196;49.428;10.906;2023-04-19T09:54:31;9.60;99.90
16180;DHT22;8196;49.428;10.906;2023-04-19T09:56:58;9.80;99.90
16180;DHT22;8196;49.428;10.906;2023-04-19T09:59:27;9.90;99.90
16180;DHT22;8196;49.428;10.906;2023-04-19T10:01:54;10.00;99.90
16180;DHT22;8196;49.428;10.906;2023-04-19T10:04:22;10.20;99.90
16180;DHT22;8196;49.428;10.906;2023-04-19T10:07:05;10.30;99.90
16180;DHT22;8196;49.428;10.906;2023-04-19T10:12:31;10.50;99.90
16180;DHT22;8196;49.428;10.906;2023-04-19T10:15:01;10.60;99.90
16180;DHT22;8196;49.428;10.906;2023-04-19T10:17:28;10.80;99.90
16180;DHT22;8196;49.428;10.906;2023-04-19T10:20:00;10.90;99.90
16180;DHT22;8196;49.428;10.906;2023-04-19T10:22:34;11.20;99.90
16180;DHT22;8196;49.428;10.906;2023-04-19T10:25:10;11.30;99.90
16180;DHT22;8196;49.428;10.906;2023-04-19T10:27:37;11.50;99.90
16180;DHT22;8196;49.428;10.906;2023-04-19T10:30:05;11.60;99.90
16180;DHT22;8196;49.428;10.906;2023-04-19T10:32:39;11.60;99.90
16180;DHT22;8196;49.428;10.906;2023-04-19T10:35:15;11.90;99.90
16180;DHT22;8196;49.428;10.906;2023-04-19T10:43:17;12.90;96.90
16180;DHT22;8196;49.428;10.906;2023-04-19T10:45:44;13.10;95.30
16180;DHT22;8196;49.428;10.906;2023-04-19T10:53:46;13.80;92.90
16180;DHT22;8196;49.428;10.906;2023-04-19T10:56:14;14.40;90.70
16180;DHT22;8196;49.428;10.906;2023-04-19T11:04:07;14.60;88.20
16180;DHT22;8196;49.428;10.906;2023-04-19T11:06:35;15.10;89.50
16180;DHT22;8196;49.428;10.906;2023-04-19T11:09:02;16.10;87.00
16180;DHT22;8196;49.428;10.906;2023-04-19T11:11:33;17.90;78.80
16180;DHT22;8196;49.428;10.906;2023-04-19T11:14:02;20.00;71.20
16180;DHT22;8196;49.428;10.906;2023-04-19T11:16:29;23.30;52.60
16180;DHT22;8196;49.428;10.906;2023-04-19T11:19:19;23.30;52.80
16180;DHT22;8196;49.428;10.906;2023-04-19T11:21:46;20.50;48.80
16180;DHT22;8196;49.428;10.906;2023-04-19T11:24:13;23.40;51.60
16180;DHT22;8196;49.428;10.906;2023-04-19T11:26:45;24.20;48.20
16180;DHT22;8196;49.428;10.906;2023-04-19T11:29:12;24.00;47.90
16180;DHT22;8196;49.428;10.906;2023-04-19T11:31:42;23.30;45.40
16180;DHT22;8196;49.428;10.906;2023-04-19T11:34:09;22.00;45.70
16180;DHT22;8196;49.428;10.906;2023-04-19T11:36:48;22.20;46.90
16180;DHT22;8196;49.428;10.906;2023-04-19T11:39:15;22.30;48.20
16180;DHT22;8196;49.428;10.906;2023-04-19T11:41:42;23.10;45.70
16180;DHT22;8196;49.428;10.906;2023-04-19T11:44:13;23.50;43.10
16180;DHT22;8196;49.428;10.906;2023-04-19T11:46:40;24.10;43.60
16180;DHT22;8196;49.428;10.906;2023-04-19T11:49:07;25.00;41.00
16180;DHT22;8196;49.428;10.906;2023-04-19T11:51:34;25.70;41.00
16180;DHT22;8196;49.428;10.906;2023-04-19T11:54:01;26.20;38.60
16180;DHT22;8196;49.428;10.906;2023-04-19T11:56:56;25.80;38.50
16180;DHT22;8196;49.428;10.906;2023-04-19T11:59:23;25.90;40.00
16180;DHT22;8196;49.428;10.906;2023-04-19T12:01:50;25.00;39.10
16180;DHT22;8196;49.428;10.906;2023-04-19T12:04:17;23.30;40.10
16180;DHT22;8196;49.428;10.906;2023-04-19T12:06:56;21.60;42.60
16180;DHT22;8196;49.428;10.906;2023-04-19T12:09:25;20.30;44.20
16180;DHT22;8196;49.428;10.906;2023-04-19T12:11:52;19.90;46.30
16180;DHT22;8196;49.428;10.906;2023-04-19T12:14:20;20.20;46.10
16180;DHT22;8196;49.428;10.906;2023-04-19T12:17:10;19.70;44.60
16180;DHT22;8196;49.428;10.906;2023-04-19T12:22:12;19.20;46.50
16180;DHT22;8196;49.428;10.906;2023-04-19T12:24:39;18.70;46.90
16180;DHT22;8196;49.428;10.906;2023-04-19T12:27:07;18.20;47.30
16180;DHT22;8196;49.428;10.906;2023-04-19T12:29:34;17.80;47.70
16180;DHT22;8196;49.428;10.906;2023-04-19T12:32:02;18.30;47.70
16180;DHT22;8196;49.428;10.906;2023-04-19T12:34:29;20.60;43.20
16180;DHT22;8196;49.428;10.906;2023-04-19T12:36:55;22.80;40.60
16180;DHT22;8196;49.428;10.906;2023-04-19T12:39:23;24.60;37.30
16180;DHT22;8196;49.428;10.906;2023-04-19T12:41:50;25.90;35.10
16180;DHT22;8196;49.428;10.906;2023-04-19T12:44:16;27.20;33.70
16180;DHT22;8196;49.428;10.906;2023-04-19T12:51:37;27.70;27.30
16180;DHT22;8196;49.428;10.906;2023-04-19T12:54:04;26.80;27.90
16180;DHT22;8196;49.428;10.906;2023-04-19T12:56:33;26.20;29.10
16180;DHT22;8196;49.428;10.906;2023-04-19T12:59:00;26.30;29.50
16180;DHT22;8196;49.428;10.906;2023-04-19T13:01:27;26.60;28.90
16180;DHT22;8196;49.428;10.906;2023-04-19T13:03:54;26.60;29.20
16180;DHT22;8196;49.428;10.906;2023-04-19T13:06:24;27.30;27.70
16180;DHT22;8196;49.428;10.906;2023-04-19T13:08:51;27.30;28.10
16180;DHT22;8196;49.428;10.906;2023-04-19T13:11:20;27.40;27.30
16180;DHT22;8196;49.428;10.906;2023-04-19T13:13:49;27.10;26.30
16180;DHT22;8196;49.428;10.906;2023-04-19T13:16:17;26.20;27.40
16180;DHT22;8196;49.428;10.906;2023-04-19T13:18:44;26.20;27.80
16180;DHT22;8196;49.428;10.906;2023-04-19T13:21:11;26.30;27.90
16180;DHT22;8196;49.428;10.906;2023-04-19T13:23:37;26.40;26.90
16180;DHT22;8196;49.428;10.906;2023-04-19T13:26:05;26.20;26.00
16180;DHT22;8196;49.428;10.906;2023-04-19T13:28:32;25.70;26.10
16180;DHT22;8196;49.428;10.906;2023-04-19T13:31:02;25.30;26.90
16180;DHT22;8196;49.428;10.906;2023-04-19T13:33:29;25.40;27.80
16180;DHT22;8196;49.428;10.906;2023-04-19T13:35:56;25.70;27.00
16180;DHT22;8196;49.428;10.906;2023-04-19T13:38:22;25.30;26.10
16180;DHT22;8196;49.428;10.906;2023-04-19T13:40:50;24.60;27.50
16180;DHT22;8196;49.428;10.906;2023-04-19T13:43:17;25.50;28.20
16180;DHT22;8196;49.428;10.906;2023-04-19T13:45:43;26.60;26.90
16180;DHT22;8196;49.428;10.906;2023-04-19T13:48:11;27.10;27.00
16180;DHT22;8196;49.428;10.906;2023-04-19T13:50:38;27.20;26.50
16180;DHT22;8196;49.428;10.906;2023-04-19T13:53:04;27.70;25.80
16180;DHT22;8196;49.428;10.906;2023-04-19T13:55:31;27.90;25.00
16180;DHT22;8196;49.428;10.906;2023-04-19T13:57:58;27.80;25.90
16180;DHT22;8196;49.428;10.906;2023-04-19T14:00:25;27.40;25.70
16180;DHT22;8196;49.428;10.906;2023-04-19T14:02:53;27.10;26.00
16180;DHT22;8196;49.428;10.906;2023-04-19T14:05:20;27.20;26.30
16180;DHT22;8196;49.428;10.906;2023-04-19T14:07:47;27.10;25.90
16180;DHT22;8196;49.428;10.906;2023-04-19T14:10:14;27.20;26.30
16180;DHT22;8196;49.428;10.906;2023-04-19T14:12:41;27.50;25.80
16180;DHT22;8196;49.428;10.906;2023-04-19T14:15:08;26.00;26.50
16180;DHT22;8196;49.428;10.906;2023-04-19T14:17:35;24.40;28.50
16180;DHT22;8196;49.428;10.906;2023-04-19T14:20:02;23.30;28.90
16180;DHT22;8196;49.428;10.906;2023-04-19T14:22:32;24.00;29.70
16180;DHT22;8196;49.428;10.906;2023-04-19T14:25:00;24.40;28.20
16180;DHT22;8196;49.428;10.906;2023-04-19T14:27:27;24.40;29.60
16180;DHT22;8196;49.428;10.906;2023-04-19T14:29:54;23.70;29.30
16180;DHT22;8196;49.428;10.906;2023-04-19T14:32:21;21.90;30.30
16180;DHT22;8196;49.428;10.906;2023-04-19T14:34:53;20.80;32.40
16180;DHT22;8196;49.428;10.906;2023-04-19T14:37:21;21.90;32.90
16180;DHT22;8196;49.428;10.906;2023-04-19T14:39:48;21.80;30.00
16180;DHT22;8196;49.428;10.906;2023-04-19T14:42:15;20.10;32.00
16180;DHT22;8196;49.428;10.906;2023-04-19T14:44:42;19.20;34.90
16180;DHT22;8196;49.428;10.906;2023-04-19T14:47:09;20.80;33.80
16180;DHT22;8196;49.428;10.906;2023-04-19T14:49:36;22.20;31.50
16180;DHT22;8196;49.428;10.906;2023-04-19T14:52:03;20.60;31.30
16180;DHT22;8196;49.428;10.906;2023-04-19T14:54:30;18.60;33.80
16180;DHT22;8196;49.428;10.906;2023-04-19T14:56:57;17.20;37.00
16180;DHT22;8196;49.428;10.906;2023-04-19T14:59:23;16.80;39.00
16180;DHT22;8196;49.428;10.906;2023-04-19T15:01:50;16.40;39.00
16180;DHT22;8196;49.428;10.906;2023-04-19T15:04:17;17.10;39.40
16180;DHT22;8196;49.428;10.906;2023-04-19T15:06:44;19.50;35.90
16180;DHT22;8196;49.428;10.906;2023-04-19T15:09:11;19.70;36.60
16180;DHT22;8196;49.428;10.906;2023-04-19T15:11:38;20.30;33.90
16180;DHT22;8196;49.428;10.906;2023-04-19T15:14:05;21.20;33.10
16180;DHT22;8196;49.428;10.906;2023-04-19T15:16:31;20.90;31.00
16180;DHT22;8196;49.428;10.906;2023-04-19T15:18:58;21.00;31.80
16180;DHT22;8196;49.428;10.906;2023-04-19T15:21:25;21.20;30.40
16180;DHT22;8196;49.428;10.906;2023-04-19T15:23:53;21.60;31.50
16180;DHT22;8196;49.428;10.906;2023-04-19T15:26:21;22.20;30.30
16180;DHT22;8196;49.428;10.906;2023-04-19T15:28:49;22.10;30.80
16180;DHT22;8196;49.428;10.906;2023-04-19T15:31:15;21.90;31.80
16180;DHT22;8196;49.428;10.906;2023-04-19T15:33:43;22.50;30.50
16180;DHT22;8196;49.428;10.906;2023-04-19T15:36:09;22.10;30.20
16180;DHT22;8196;49.428;10.906;2023-04-19T15:38:36;22.10;30.90
16180;DHT22;8196;49.428;10.906;2023-04-19T15:41:03;25.80;34.60
16180;DHT22;8196;49.428;10.906;2023-04-19T15:43:29;22.40;32.00
16180;DHT22;8196;49.428;10.906;2023-04-19T15:45:57;22.60;30.00
16180;DHT22;8196;49.428;10.906;2023-04-19T15:48:23;22.20;29.40
16180;DHT22;8196;49.428;10.906;2023-04-19T15:50:50;21.30;30.50
16180;DHT22;8196;49.428;10.906;2023-04-19T15:53:17;21.70;30.60
16180;DHT22;8196;49.428;10.906;2023-04-19T15:55:43;21.90;30.50
16180;DHT22;8196;49.428;10.906;2023-04-19T15:58:12;21.60;29.70
16180;DHT22;8196;49.428;10.906;2023-04-19T16:00:39;21.60;30.40
16180;DHT22;8196;49.428;10.906;2023-04-19T16:03:07;21.00;30.40
16180;DHT22;8196;49.428;10.906;2023-04-19T16:05:37;19.20;32.70
16180;DHT22;8196;49.428;10.906;2023-04-19T16:08:05;16.90;36.10
16180;DHT22;8196;49.428;10.906;2023-04-19T16:10:32;14.70;39.30
16180;DHT22;8196;49.428;10.906;2023-04-19T16:12:59;14.70;39.90
16180;DHT22;8196;49.428;10.906;2023-04-19T16:15:27;13.90;42.70